createdAt,value
2019-03-12T07:02:10.198Z,139.97
2019-03-12T07:04:40.102Z,123.37
2019-03-12T07:07:22.263Z,142.07
2019-03-12T07:09:58.010Z,123.97
2019-03-12T07:12:36.795Z,143.23
2019-03-12T07:15:07.978Z,163.53
2019-03-12T07:17:50.434Z,131.73
2019-03-12T07:20:37.172Z,141.63
2019-03-12T07:23:16.204Z,136.03
2019-03-12T07:26:02.379Z,150.53
2019-03-12T07:28:50.008Z,135.70
2019-03-12T07:31:16.245Z,150.80
2019-03-12T07:33:52.211Z,151.97
2019-03-12T07:36:37.492Z,157.90
2019-03-12T07:39:14.849Z,149.73
2019-03-12T07:41:56.999Z,151.90
2019-03-12T07:44:27.260Z,161.57
2019-03-12T07:47:00.480Z,154.37
2019-03-12T07:49:36.721Z,148.17
2019-03-12T07:52:09.398Z,152.43
2019-03-12T07:54:48.987Z,153.37
2019-03-12T07:57:19.134Z,156.60
2019-03-12T07:59:55.443Z,165.83
2019-03-12T08:02:42.167Z,168.10
2019-03-12T08:05:30.542Z,166.60
2019-03-12T08:08:03.708Z,134.20
2019-03-12T08:10:36.487Z,149.33
2019-03-12T08:13:18.705Z,173.53
2019-03-12T08:16:06.075Z,164.73
2019-03-12T08:18:39.055Z,169.77
2019-03-12T08:21:22.221Z,162.77
2019-03-12T08:24:03.124Z,170.40
2019-03-12T08:26:42.249Z,167.43
2019-03-12T08:29:29.133Z,165.37
2019-03-12T08:32:02.482Z,134.90
2019-03-12T08:34:32.714Z,141.97
2019-03-12T08:37:02.934Z,170.87
2019-03-12T08:39:36.613Z,154.47
2019-03-12T08:42:15.658Z,176.17
2019-03-12T08:44:54.793Z,165.50
2019-03-12T08:47:28.041Z,161.50
2019-03-12T08:50:00.870Z,152.90
2019-03-12T08:52:33.680Z,149.70
2019-03-12T08:55:04.421Z,161.03
2019-03-12T08:57:46.635Z,165.93
2019-03-12T09:00:19.555Z,164.57
2019-03-12T09:02:52.394Z,169.70
2019-03-12T09:05:39.125Z,168.90
2019-03-12T09:08:25.883Z,186.50
2019-03-12T09:11:08.445Z,187.20
2019-03-12T09:13:52.471Z,188.47
2019-03-12T09:16:28.730Z,192.13
2019-03-12T09:19:01.625Z,186.43
2019-03-12T09:21:43.838Z,172.43
2019-03-12T09:24:16.708Z,172.93
2019-03-12T09:26:47.577Z,179.30
2019-03-12T09:29:17.524Z,157.13
2019-03-12T09:31:59.727Z,165.40
2019-03-12T09:34:32.673Z,148.67
2019-03-12T09:37:08.831Z,151.73
2019-03-12T09:39:51.009Z,149.43
2019-03-12T09:42:37.625Z,145.03
2019-03-12T09:45:19.193Z,158.27
2019-03-12T09:47:55.030Z,150.67
2019-03-12T09:50:24.989Z,147.03
2019-03-12T09:53:11.703Z,150.87
2019-03-12T09:55:44.432Z,146.47
2019-03-12T09:58:22.833Z,148.07
2019-03-12T10:01:10.753Z,151.80
2019-03-12T10:03:46.394Z,154.67
2019-03-12T10:06:32.703Z,156.23
2019-03-12T10:09:14.350Z,150.87
2019-03-12T10:12:00.706Z,152.37
2019-03-12T10:14:33.357Z,160.33
2019-03-12T10:17:03.266Z,138.27
2019-03-12T10:19:35.690Z,138.97
2019-03-12T10:22:20.707Z,144.60
2019-03-12T10:24:50.670Z,154.37
2019-03-12T10:27:20.565Z,155.50
2019-03-12T10:29:50.409Z,157.03
2019-03-12T10:32:20.345Z,154.30
2019-03-12T10:34:50.274Z,171.87
2019-03-12T10:37:32.599Z,151.37
2019-03-12T10:40:03.428Z,147.77
2019-03-12T10:42:37.871Z,164.20
2019-03-12T10:45:18.247Z,153.93
2019-03-12T10:47:57.527Z,162.00
2019-03-12T10:50:26.238Z,156.10
2019-03-12T10:52:54.707Z,156.73
2019-03-12T10:55:23.026Z,173.97
2019-03-12T10:57:51.591Z,161.33
2019-03-12T11:00:20.158Z,159.03
2019-03-12T11:02:48.451Z,171.60
2019-03-12T11:05:17.311Z,176.83
2019-03-12T11:07:45.636Z,164.23
2019-03-12T11:10:15.503Z,173.53
2019-03-12T11:12:44.005Z,178.10
2019-03-12T11:15:12.545Z,189.70
2019-03-12T11:17:49.457Z,186.10
2019-03-12T11:20:22.571Z,171.83
2019-03-12T11:22:50.866Z,183.93
2019-03-12T11:25:27.060Z,184.00
2019-03-12T11:27:49.725Z,194.43
2019-03-12T11:30:19.251Z,180.40
2019-03-12T11:32:47.508Z,199.10
2019-03-12T11:35:39.437Z,189.37
2019-03-12T11:38:05.833Z,205.10
2019-03-12T11:40:34.490Z,190.33
2019-03-12T11:43:02.788Z,192.60
2019-03-12T11:45:36.878Z,194.70
2019-03-12T11:48:01.283Z,200.40
2019-03-12T11:50:29.996Z,196.37
2019-03-12T11:53:00.050Z,199.47
2019-03-12T11:55:28.523Z,195.13
2019-03-12T11:57:57.249Z,186.30
2019-03-12T12:00:33.160Z,192.80
2019-03-12T12:03:01.520Z,187.03
2019-03-12T12:05:29.850Z,189.23
2019-03-12T12:07:58.475Z,204.50
2019-03-12T12:10:26.731Z,201.43
2019-03-12T12:12:55.416Z,194.70
2019-03-12T12:15:24.591Z,190.03
2019-03-12T12:17:55.753Z,186.93
2019-03-12T12:20:29.518Z,183.60
2019-03-12T12:22:54.674Z,184.80
2019-03-12T12:25:22.990Z,187.07
2019-03-12T12:27:51.488Z,200.03
2019-03-12T12:30:21.467Z,188.07
2019-03-12T12:32:50.039Z,202.60
2019-03-12T12:35:18.602Z,197.07
2019-03-12T12:37:47.169Z,197.87
2019-03-12T12:40:20.808Z,192.63
2019-03-12T12:42:49.464Z,198.47
2019-03-12T12:45:26.939Z,208.33
2019-03-12T12:47:55.555Z,208.27
2019-03-12T12:50:24.214Z,194.93
2019-03-12T12:52:52.890Z,196.63
2019-03-12T12:55:21.391Z,197.33
2019-03-12T12:57:50.039Z,195.20
2019-03-12T13:00:23.838Z,185.43
2019-03-12T13:02:52.484Z,207.23
2019-03-12T13:05:20.949Z,212.80
2019-03-12T13:07:49.480Z,202.37
2019-03-12T13:10:31.769Z,202.70
2019-03-12T13:13:00.417Z,204.63
2019-03-12T13:15:29.039Z,211.67
2019-03-12T13:17:57.538Z,202.53
2019-03-12T13:20:26.423Z,206.23
2019-03-12T13:22:55.055Z,218.03
2019-03-12T13:25:23.632Z,215.03
2019-03-12T13:27:52.205Z,216.37
2019-03-12T13:30:21.613Z,192.00
2019-03-12T13:32:49.944Z,200.77
2019-03-12T13:35:18.535Z,185.77
2019-03-12T13:37:47.503Z,194.27
2019-03-12T13:40:21.357Z,207.63
2019-03-12T13:42:49.764Z,214.33
2019-03-12T13:45:19.647Z,183.90
2019-03-12T13:47:48.216Z,186.67
2019-03-12T13:50:16.761Z,195.23
2019-03-12T13:52:45.443Z,188.90
2019-03-12T13:55:15.177Z,188.07
2019-03-12T13:57:43.872Z,215.10
2019-03-12T14:00:23.769Z,214.30
2019-03-12T14:02:52.095Z,208.67
2019-03-12T14:05:20.732Z,202.87
2019-03-12T14:07:49.737Z,197.80
2019-03-12T14:10:19.709Z,199.80
2019-03-12T14:12:47.899Z,200.40
2019-03-12T14:15:30.343Z,193.23
2019-03-12T14:17:59.361Z,191.90
2019-03-12T14:20:50.892Z,203.90
2019-03-12T14:23:28.342Z,213.20
2019-03-12T14:25:56.639Z,189.80
2019-03-12T14:28:25.569Z,198.60
2019-03-12T14:30:53.761Z,193.13
2019-03-12T14:33:22.368Z,208.37
2019-03-12T14:35:52.298Z,209.50
2019-03-12T14:38:20.878Z,193.93
2019-03-12T14:40:49.254Z,193.33
2019-03-12T14:43:17.893Z,227.93
2019-03-12T14:45:50.685Z,208.63
2019-03-12T14:48:37.145Z,205.87
2019-03-12T14:51:09.314Z,225.07
2019-03-12T14:53:37.875Z,195.77
2019-03-12T14:56:06.959Z,195.47
2019-03-12T14:58:35.239Z,199.13
2019-03-12T15:01:03.913Z,209.50
2019-03-12T15:03:32.919Z,214.23
2019-03-12T15:06:01.580Z,194.20
2019-03-12T15:08:30.232Z,202.57
2019-03-12T15:10:59.050Z,200.33
2019-03-12T15:13:27.382Z,192.83
2019-03-12T15:15:55.751Z,174.97
2019-03-12T15:18:25.147Z,179.07
2019-03-12T15:20:53.926Z,183.07
2019-03-12T15:23:45.715Z,209.00
2019-03-12T15:26:14.942Z,191.83
2019-03-12T15:28:43.610Z,194.27
2019-03-12T15:31:13.109Z,188.47
2019-03-12T15:33:41.732Z,177.73
2019-03-12T15:36:10.067Z,170.30
2019-03-12T15:38:39.131Z,172.23
2019-03-12T15:41:07.789Z,173.77
2019-03-12T15:43:37.593Z,182.87
2019-03-12T15:46:06.200Z,183.73
2019-03-12T15:48:34.767Z,174.80
2019-03-12T15:51:03.268Z,179.13
2019-03-12T15:53:31.866Z,173.33
2019-03-12T15:56:00.519Z,186.80
2019-03-12T15:58:28.771Z,183.93
2019-03-12T16:00:57.439Z,174.60
2019-03-12T16:03:25.756Z,177.90
2019-03-12T16:05:54.404Z,183.23
2019-03-12T16:08:23.025Z,178.50
2019-03-12T16:10:57.845Z,174.37
2019-03-12T16:13:21.566Z,187.03
2019-03-12T16:15:49.861Z,183.73
2019-03-12T16:18:18.509Z,174.97
2019-03-12T16:20:47.073Z,172.50
2019-03-12T16:23:15.679Z,169.57
2019-03-12T16:25:45.679Z,169.03
2019-03-12T16:28:14.321Z,192.73
2019-03-12T16:30:42.986Z,171.70
2019-03-12T16:33:11.631Z,179.67
2019-03-12T16:35:39.891Z,175.60
2019-03-12T16:38:08.433Z,169.20
2019-03-12T16:40:36.757Z,183.07
2019-03-12T16:43:05.026Z,186.87
2019-03-12T16:45:33.568Z,182.50
2019-03-12T16:48:02.141Z,183.97
2019-03-12T16:50:32.357Z,185.20
2019-03-12T16:53:00.642Z,176.70
2019-03-12T16:55:29.303Z,174.60
2019-03-12T16:57:57.938Z,184.33
2019-03-12T17:00:26.610Z,181.37
2019-03-12T17:02:55.246Z,188.30
2019-03-12T17:05:28.099Z,181.47
2019-03-12T17:07:56.387Z,188.93
2019-03-12T17:10:24.955Z,180.23
2019-03-12T17:12:53.604Z,181.53
2019-03-12T17:15:27.012Z,179.83
2019-03-12T17:17:55.512Z,182.47
2019-03-12T17:20:24.099Z,178.87
2019-03-12T17:22:52.685Z,189.73
2019-03-12T17:25:22.213Z,191.23
2019-03-12T17:27:51.872Z,185.23
2019-03-12T17:30:24.589Z,176.70
2019-03-12T17:32:53.174Z,190.77
2019-03-12T17:35:27.544Z,173.10
2019-03-12T17:37:56.081Z,170.00
2019-03-12T17:40:24.727Z,175.43
2019-03-12T17:42:53.371Z,169.90
2019-03-12T17:45:21.973Z,176.03
2019-03-12T17:47:50.921Z,166.20
2019-03-12T17:50:19.248Z,166.47
2019-03-12T17:52:47.937Z,177.73
2019-03-12T17:55:16.582Z,179.87
2019-03-12T17:57:45.605Z,171.47
2019-03-12T18:00:19.948Z,175.83
2019-03-12T18:02:50.653Z,178.37
2019-03-12T18:05:18.902Z,184.80
2019-03-12T18:07:47.271Z,184.73
2019-03-12T18:10:16.105Z,176.60
2019-03-12T18:12:44.426Z,179.10
2019-03-12T18:15:15.100Z,185.30
2019-03-12T18:17:43.739Z,187.17
2019-03-12T18:20:19.897Z,181.00
2019-03-12T18:22:48.541Z,177.53
2019-03-12T18:25:18.178Z,178.13
2019-03-12T18:27:46.635Z,176.50
2019-03-12T18:30:19.171Z,180.13
2019-03-12T18:32:47.471Z,174.37
2019-03-12T18:35:16.235Z,187.50
2019-03-12T18:37:46.387Z,182.07
2019-03-12T18:40:17.687Z,190.70
2019-03-12T18:42:46.405Z,171.87
2019-03-12T18:45:17.450Z,170.20
2019-03-12T18:47:45.812Z,173.23
2019-03-12T18:50:17.790Z,177.03
2019-03-12T18:52:46.413Z,165.07
2019-03-12T18:55:33.807Z,173.10
2019-03-12T18:58:04.562Z,183.57
2019-03-12T19:00:32.982Z,182.67
2019-03-12T19:03:02.017Z,171.13
2019-03-12T19:05:30.351Z,175.77
2019-03-12T19:07:58.676Z,175.93
2019-03-12T19:10:27.369Z,173.27
2019-03-12T19:12:55.712Z,173.10
2019-03-12T19:15:24.045Z,169.67
2019-03-12T19:17:53.155Z,180.13
2019-03-12T19:20:33.465Z,169.50
2019-03-12T19:23:02.159Z,166.23
2019-03-12T19:25:38.304Z,159.97
2019-03-12T19:28:06.066Z,173.23
2019-03-12T19:30:35.063Z,165.23
2019-03-12T19:33:05.579Z,175.07
2019-03-12T19:35:36.781Z,164.53
2019-03-12T19:38:05.484Z,216.67
2019-03-12T19:40:43.047Z,174.90
2019-03-12T19:43:11.395Z,165.97
2019-03-12T19:45:39.667Z,165.17
2019-03-12T19:48:08.379Z,171.97
2019-03-12T19:50:36.881Z,167.33
2019-03-12T19:53:05.156Z,166.53
2019-03-12T19:55:48.889Z,162.10
2019-03-12T19:58:17.463Z,175.87
2019-03-12T20:00:46.099Z,166.50
2019-03-12T20:03:16.404Z,155.00
2019-03-12T20:05:45.058Z,161.37
2019-03-12T20:08:13.419Z,161.93
2019-03-12T20:11:09.127Z,168.77
2019-03-12T20:14:04.862Z,150.33
2019-03-12T20:17:08.167Z,166.93
2019-03-12T20:19:48.005Z,162.97
2019-03-12T20:22:39.181Z,156.20
2019-03-12T20:25:25.852Z,166.40
2019-03-12T20:28:01.747Z,165.83
2019-03-12T20:30:52.963Z,165.03
2019-03-12T20:33:22.898Z,168.23
2019-03-12T20:36:09.185Z,163.90
2019-03-12T20:38:57.351Z,175.40
2019-03-12T20:41:44.322Z,172.93
2019-03-12T20:44:39.074Z,182.60
2019-03-12T20:47:25.505Z,180.73
2019-03-12T20:50:13.794Z,195.63
2019-03-12T20:53:00.219Z,169.73
2019-03-12T20:55:47.237Z,184.87
2019-03-12T20:58:33.865Z,170.27
2019-03-12T21:01:40.767Z,167.80
2019-03-12T21:04:18.018Z,180.00
2019-03-12T21:07:10.009Z,182.53
2019-03-12T21:09:59.614Z,179.87
2019-03-12T21:12:46.280Z,175.87
2019-03-12T21:15:34.492Z,192.07
2019-03-12T21:18:18.502Z,169.17
2019-03-12T21:20:57.386Z,177.63
2019-03-12T21:23:47.394Z,171.80
2019-03-12T21:26:47.928Z,165.90
2019-03-12T21:29:45.528Z,162.67
2019-03-12T21:32:15.282Z,162.10
2019-03-12T21:34:44.574Z,170.77
2019-03-12T21:37:13.280Z,169.97
2019-03-12T21:39:54.004Z,173.07
2019-03-12T21:42:11.867Z,186.03
2019-03-12T21:44:41.337Z,185.77
2019-03-12T21:47:10.004Z,169.23
2019-03-12T21:49:39.168Z,165.13
2019-03-12T21:52:07.836Z,173.53
2019-03-12T21:54:36.482Z,176.13
2019-03-12T21:57:05.120Z,166.93
2019-03-12T21:59:33.499Z,174.20
2019-03-12T22:02:02.138Z,165.90
2019-03-12T22:04:30.730Z,173.30
2019-03-12T22:06:59.353Z,168.57
2019-03-12T22:09:28.265Z,162.63
2019-03-12T22:11:56.918Z,153.80
2019-03-12T22:14:25.603Z,164.20
2019-03-12T22:16:54.746Z,171.47
2019-03-12T22:19:23.002Z,162.57
2019-03-12T22:22:11.471Z,163.07
2019-03-12T22:24:39.812Z,164.37
2019-03-12T22:27:08.462Z,181.00
2019-03-12T22:29:37.003Z,168.87
2019-03-12T22:32:05.649Z,163.53
2019-03-12T22:34:38.182Z,163.47
2019-03-12T22:37:06.890Z,170.83
2019-03-12T22:39:40.250Z,177.00
2019-03-12T22:42:10.596Z,161.77
2019-03-12T22:44:39.231Z,163.37
2019-03-12T22:47:07.891Z,170.33
2019-03-12T22:49:36.500Z,157.53
2019-03-12T22:52:05.748Z,161.57
2019-03-12T22:54:34.400Z,162.30
2019-03-12T22:57:02.690Z,171.43
2019-03-12T22:59:31.201Z,173.53
2019-03-12T23:01:59.765Z,163.40
2019-03-12T23:08:27.455Z,156.67
2019-03-12T23:10:58.650Z,159.23
2019-03-12T23:13:27.201Z,161.10
2019-03-12T23:15:56.212Z,150.17
2019-03-12T23:18:24.884Z,159.93
2019-03-12T23:20:55.085Z,161.87
2019-03-12T23:23:23.714Z,160.73
2019-03-12T23:25:52.377Z,160.30
2019-03-12T23:28:20.700Z,153.67
2019-03-12T23:30:49.390Z,158.70
2019-03-12T23:33:18.132Z,155.27
2019-03-12T23:35:46.711Z,155.20
2019-03-12T23:38:15.391Z,155.83
2019-03-12T23:40:44.051Z,160.43
2019-03-12T23:43:12.678Z,159.90
2019-03-12T23:45:41.303Z,171.67
2019-03-12T23:48:09.893Z,161.50
2019-03-12T23:50:38.517Z,159.13
2019-03-12T23:53:06.889Z,156.83
2019-03-12T23:55:35.625Z,170.63
2019-03-12T23:58:04.244Z,155.33
